Time;durP1;ratioP1;P1;durP2;ratioP2;P2;SDS_P1;SDS_P2;PMS_P1;PMS_P2;Temp;Humidity;BMP_temperature;BMP_pressure;BME280_temperature;BME280_humidity;BME280_pressure;Samples;Min_cycle;Max_cycle;Signal;HPM_P1;HPM_P2
2023/09/19 00:02:17;;;;;;;;;0.00;0.00;;;;;24.31;43.28;100901.25;4957398;28;45228;-41
2023/09/19 00:04:43;;;;;;;;;0.50;0.00;;;;;24.30;43.96;100903.06;4957637;28;45492;-40
2023/09/19 00:07:09;;;;;;;;;1.00;0.00;;;;;24.30;43.51;100908.38;4956499;28;45359;-39
2023/09/19 00:09:37;;;;;;;;;0.00;0.00;;;;;24.30;43.61;100903.06;4957343;28;46156;-49
2023/09/19 00:12:09;;;;;;;;;0.00;0.00;;;;;24.28;43.84;100902.31;4957304;28;45370;-42
2023/09/19 00:14:35;;;;;;;;;0.00;0.00;;;;;24.29;43.51;100906.66;4957101;28;45382;-45
2023/09/19 00:17:05;;;;;;;;;0.25;0.25;;;;;24.29;43.44;100909.31;4957636;28;45618;-46
2023/09/19 00:19:32;;;;;;;;;0.00;0.00;;;;;24.29;43.70;100911.97;4957205;28;46977;-50
2023/09/19 00:21:57;;;;;;;;;1.75;0.00;;;;;24.29;43.49;100908.44;4957480;28;45370;-40
2023/09/19 00:24:23;;;;;;;;;0.00;0.00;;;;;24.30;43.70;100913.66;4957482;28;45655;-47
2023/09/19 00:26:48;;;;;;;;;1.00;0.00;;;;;24.29;43.07;100919.91;4957515;28;46000;-50
2023/09/19 00:29:16;;;;;;;;;1.00;0.00;;;;;24.30;43.07;100918.97;4957148;28;46444;-45
2023/09/19 00:31:43;;;;;;;;;0.50;0.00;;;;;24.29;43.51;100921.69;4957095;28;45469;-42
2023/09/19 00:34:10;;;;;;;;;2.00;0.25;;;;;24.29;43.57;100922.56;4957335;28;45358;-38
2023/09/19 00:36:38;;;;;;;;;1.25;1.00;;;;;24.30;43.63;100923.41;4957451;28;45429;-41
2023/09/19 00:39:05;;;;;;;;;0.25;0.00;;;;;24.29;43.19;100921.69;4957112;28;46460;-41
2023/09/19 00:41:31;;;;;;;;;1.00;1.00;;;;;24.28;42.96;100918.22;4956939;28;45477;-38
2023/09/19 00:43:56;;;;;;;;;0.50;0.00;;;;;24.29;43.60;100921.69;4957598;28;45493;-42
2023/09/19 00:46:22;;;;;;;;;0.00;0.00;;;;;24.27;43.18;100927.13;4957347;28;45552;-41
2023/09/19 00:48:47;;;;;;;;;0.50;0.50;;;;;24.28;43.00;100939.41;4956845;28;46220;-42
2023/09/19 00:51:13;;;;;;;;;2.00;0.00;;;;;24.28;43.13;100939.41;4956980;28;45344;-39
2023/09/19 00:53:42;;;;;;;;;0.50;0.00;;;;;24.28;43.51;100939.41;4957120;28;45274;-49
2023/09/19 00:56:07;;;;;;;;;0.00;0.00;;;;;24.27;43.24;100943.00;4957217;28;45539;-46
2023/09/19 00:58:35;;;;;;;;;1.00;0.00;;;;;24.28;43.57;100946.50;4956874;28;46197;-46
2023/09/19 01:01:01;;;;;;;;;0.00;0.00;;;;;24.28;43.58;100933.25;4957724;28;45695;-38
2023/09/19 01:03:27;;;;;;;;;0.00;0.00;;;;;24.27;43.05;100943.00;4960732;28;45322;-45
2023/09/19 01:05:53;;;;;;;;;0.00;0.00;;;;;24.27;43.15;100937.72;4960502;28;45516;-43
2023/09/19 01:08:18;;;;;;;;;0.50;0.25;;;;;24.27;43.12;100936.84;4960159;28;46306;-42
2023/09/19 01:10:54;;;;;;;;;0.00;0.00;;;;;24.26;43.32;100935.16;4960193;28;45353;-46
2023/09/19 01:13:37;;;;;;;;;1.00;0.00;;;;;24.26;43.19;100940.44;4960104;28;45504;-43
2023/09/19 01:16:34;;;;;;;;;0.00;0.00;;;;;24.25;43.49;100939.59;4942906;28;45620;-39
2023/09/19 01:19:19;;;;;;;;;0.00;0.00;;;;;24.24;43.39;100937.91;4960231;28;47226;-39
2023/09/19 01:22:02;;;;;;;;;1.00;0.00;;;;;24.24;43.63;100948.50;4920232;28;45615;-45
2023/09/19 01:24:48;;;;;;;;;0.00;0.00;;;;;24.23;43.76;100944.16;4960219;28;45390;-42
2023/09/19 01:27:19;;;;;;;;;1.00;1.00;;;;;24.23;43.88;100944.16;4960285;28;45259;-41
2023/09/19 01:29:48;;;;;;;;;1.00;0.00;;;;;24.24;43.71;100940.56;4959759;28;45354;-42
2023/09/19 01:32:17;;;;;;;;;3.00;1.00;;;;;24.23;43.37;100933.56;4959766;28;45647;-42
2023/09/19 01:34:47;;;;;;;;;0.50;0.00;;;;;24.22;43.37;100942.47;4959951;28;45327;-40
2023/09/19 01:37:14;;;;;;;;;1.00;0.00;;;;;24.21;43.24;100943.41;4960085;28;45887;-40
2023/09/19 01:39:40;;;;;;;;;0.00;0.00;;;;;24.22;43.34;100939.81;4959633;28;45424;-41
2023/09/19 01:42:22;;;;;;;;;0.00;0.00;;;;;24.23;43.72;100949.47;4959723;28;45576;-45
2023/09/19 01:44:56;;;;;;;;;0.00;0.00;;;;;24.22;43.56;100945.13;4942280;28;45429;-40
2023/09/19 01:47:32;;;;;;;;;0.00;0.00;;;;;24.20;43.26;100941.72;4959795;28;45350;-41
2023/09/19 01:50:03;;;;;;;;;1.00;1.00;;;;;24.22;43.48;100955.72;4959586;28;45338;-38
2023/09/19 01:52:36;;;;;;;;;0.00;0.00;;;;;24.21;43.64;100948.72;4959957;28;45695;-40
2023/09/19 01:55:08;;;;;;;;;0.50;0.00;;;;;24.19;43.74;100943.53;4959813;28;45307;-40
2023/09/19 01:58:16;;;;;;;;;1.75;0.00;;;;;24.20;43.94;100954.97;4960005;28;45329;-42
2023/09/19 02:00:44;;;;;;;;;0.00;0.00;;;;;24.20;43.22;100957.59;4880693;29;45420;-42
2023/09/19 02:03:11;;;;;;;;;0.00;0.00;;;;;24.18;43.45;100959.53;4947564;28;45376;-40
2023/09/19 02:05:37;;;;;;;;;0.00;0.00;;;;;24.17;43.47;100957.84;4959434;28;45357;-43
2023/09/19 02:08:03;;;;;;;;;1.75;0.00;;;;;24.15;43.28;100959.75;4960036;28;45536;-40
2023/09/19 02:10:29;;;;;;;;;0.00;0.00;;;;;24.13;43.14;100957.22;4959392;28;45285;-43
2023/09/19 02:12:54;;;;;;;;;0.00;0.00;;;;;24.14;43.42;100956.25;4958086;28;45791;-42
2023/09/19 02:15:20;;;;;;;;;0.25;0.25;;;;;24.13;43.26;100957.22;4959363;28;45285;-41
2023/09/19 02:17:45;;;;;;;;;0.50;0.50;;;;;24.13;43.22;100962.50;4959323;28;45609;-41
2023/09/19 02:20:14;;;;;;;;;0.75;0.00;;;;;24.13;43.20;100961.63;4958883;28;46365;-44
2023/09/19 02:22:44;;;;;;;;;1.00;0.00;;;;;24.13;43.26;100966.94;4958523;28;45460;-45
2023/09/19 02:25:09;;;;;;;;;1.50;1.00;;;;;24.11;43.69;100952.94;4959037;28;45258;-40
2023/09/19 02:27:35;;;;;;;;;1.00;1.00;;;;;24.11;43.43;100953.81;4959567;28;45472;-43
2023/09/19 02:30:04;;;;;;;;;1.75;0.75;;;;;24.12;43.27;100949.34;4959213;28;45361;-44
2023/09/19 02:32:31;;;;;;;;;0.00;0.00;;;;;24.11;43.14;100950.31;4958782;28;45771;-43
2023/09/19 02:34:57;;;;;;;;;2.50;1.25;;;;;24.11;43.75;100953.81;4959041;28;45299;-39
2023/09/19 02:37:23;;;;;;;;;1.00;0.00;;;;;24.11;42.91;100947.66;4959060;28;45256;-45
2023/09/19 02:39:48;;;;;;;;;1.00;0.00;;;;;24.09;43.29;100956.56;4958738;28;46342;-43
2023/09/19 02:42:14;;;;;;;;;0.75;0.75;;;;;24.09;43.13;100953.06;4958744;28;45346;-42
2023/09/19 02:44:39;;;;;;;;;2.00;1.00;;;;;24.07;43.43;100950.53;4958960;28;45204;-46
2023/09/19 02:47:05;;;;;;;;;0.00;0.00;;;;;24.07;43.24;100953.19;4959092;28;45568;-54
2023/09/19 02:49:30;;;;;;;;;0.00;0.00;;;;;24.07;43.12;100952.31;4958595;28;45270;-50
2023/09/19 02:51:58;;;;;;;;;1.25;0.25;;;;;24.06;43.33;100956.78;4958876;28;45377;-50
2023/09/19 02:54:23;;;;;;;;;0.50;0.50;;;;;24.06;43.44;100958.56;4958784;28;45477;-44
2023/09/19 02:56:49;;;;;;;;;2.00;0.00;;;;;24.06;43.04;100956.78;4958982;28;45584;-47
2023/09/19 02:59:15;;;;;;;;;0.00;0.00;;;;;24.07;43.52;100955.84;4958331;28;45437;-46
2023/09/19 03:01:43;;;;;;;;;1.50;0.75;;;;;24.06;43.54;100956.78;4958238;28;45427;-42
2023/09/19 03:04:11;;;;;;;;;0.00;0.00;;;;;24.07;43.19;100954.97;4958582;28;45358;-41
2023/09/19 03:06:36;;;;;;;;;2.00;0.75;;;;;24.06;43.13;100950.63;4958896;28;45244;-44
2023/09/19 03:09:05;;;;;;;;;0.00;0.00;;;;;24.06;43.52;100948.84;4958254;28;46121;-42
2023/09/19 03:11:31;;;;;;;;;1.00;0.00;;;;;24.05;42.96;100951.56;4958310;28;45669;-46
2023/09/19 03:13:56;;;;;;;;;2.00;0.50;;;;;24.06;43.65;100954.13;4958229;28;46267;-46
2023/09/19 03:16:22;;;;;;;;;0.75;0.75;;;;;24.05;43.46;100960.38;4958515;28;45663;-41
2023/09/19 03:18:51;;;;;;;;;0.50;0.50;;;;;24.05;43.08;100952.44;4957433;28;64154;-41
2023/09/19 03:21:17;;;;;;;;;1.00;0.00;;;;;24.04;42.86;100948.09;4958131;28;45328;-41
2023/09/19 03:23:45;;;;;;;;;1.50;0.00;;;;;24.05;43.70;100948.94;4940563;28;45244;-46
2023/09/19 03:26:12;;;;;;;;;0.00;0.00;;;;;24.05;43.38;100943.63;4958346;28;45469;-45
2023/09/19 03:28:38;;;;;;;;;1.50;0.75;;;;;24.06;43.32;100955.91;4958274;28;45492;-41
2023/09/19 03:31:06;;;;;;;;;1.75;0.00;;;;;24.05;43.36;100954.22;4958112;28;45308;-46
2023/09/19 03:33:33;;;;;;;;;1.25;1.00;;;;;24.04;43.10;100953.38;4958221;28;45347;-49
2023/09/19 03:36:00;;;;;;;;;0.00;0.00;;;;;24.03;43.42;100956.97;4958221;28;45678;-44
2023/09/19 03:38:26;;;;;;;;;2.00;0.00;;;;;24.04;43.37;100947.22;4957810;28;46446;-47
2023/09/19 03:40:51;;;;;;;;;2.00;0.00;;;;;24.04;43.41;100947.22;4956623;28;45334;-46
2023/09/19 03:43:17;;;;;;;;;0.50;0.25;;;;;24.02;43.59;100950.00;4957895;28;45487;-44
2023/09/19 03:45:42;;;;;;;;;0.00;0.00;;;;;24.02;43.00;100954.44;4958076;28;45510;-41
2023/09/19 03:48:09;;;;;;;;;1.50;0.00;;;;;24.01;43.27;100950.94;4958136;28;46069;-44
2023/09/19 03:50:34;;;;;;;;;0.00;0.00;;;;;24.01;43.63;100952.75;4957859;28;45633;-41
2023/09/19 03:53:00;;;;;;;;;1.50;1.00;;;;;24.00;43.19;100951.88;4957553;28;52219;-40
2023/09/19 03:55:25;;;;;;;;;1.00;0.00;;;;;24.00;42.76;100956.34;4957381;28;54038;-42
2023/09/19 03:57:50;;;;;;;;;1.00;0.00;;;;;23.99;42.98;100954.66;4957731;28;45216;-40
2023/09/19 04:00:19;;;;;;;;;1.00;0.00;;;;;24.00;42.88;100951.88;4956869;28;67147;-39
2023/09/19 04:02:46;;;;;;;;;2.00;0.25;;;;;23.99;42.95;100944.91;4957879;28;45378;-39
2023/09/19 04:05:11;;;;;;;;;0.00;0.00;;;;;23.99;43.11;100946.72;4956425;28;45540;-40
2023/09/19 04:07:36;;;;;;;;;2.25;1.00;;;;;23.98;43.22;100948.50;4957762;28;47105;-41
2023/09/19 04:10:03;;;;;;;;;3.00;0.50;;;;;23.98;42.77;100945.00;4957670;28;45423;-41
2023/09/19 04:12:28;;;;;;;;;0.75;0.75;;;;;23.97;42.80;100943.31;4957488;28;45355;-40
2023/09/19 04:14:53;;;;;;;;;1.50;0.50;;;;;23.97;43.38;100938.88;4957736;28;45252;-38
2023/09/19 04:17:19;;;;;;;;;2.00;1.00;;;;;23.96;43.25;100945.13;4957387;28;46147;-40
2023/09/19 04:19:45;;;;;;;;;1.00;1.00;;;;;23.96;42.80;100947.78;4956837;28;59303;-42
2023/09/19 04:22:12;;;;;;;;;3.00;1.00;;;;;23.94;42.84;100937.25;4957825;28;45322;-49
2023/09/19 04:24:37;;;;;;;;;0.75;0.00;;;;;23.95;42.84;100935.50;4958067;28;45560;-51
2023/09/19 04:27:04;;;;;;;;;1.25;0.00;;;;;23.93;43.33;100940.00;4957026;28;46102;-48
2023/09/19 04:29:29;;;;;;;;;1.00;1.00;;;;;23.92;42.96;100939.13;4939612;28;45757;-49
2023/09/19 04:31:56;;;;;;;;;0.50;0.00;;;;;23.92;43.27;100938.31;4957292;28;45293;-47
2023/09/19 04:34:21;;;;;;;;;0.25;0.25;;;;;23.92;43.33;100941.78;4957465;28;45343;-45
2023/09/19 04:36:47;;;;;;;;;2.50;0.25;;;;;23.93;42.84;100950.59;4957724;28;45362;-43
2023/09/19 04:39:12;;;;;;;;;2.25;0.75;;;;;23.92;43.26;100948.91;4960806;28;46905;-44
2023/09/19 04:41:41;;;;;;;;;3.00;1.00;;;;;23.92;42.89;100938.31;4960852;28;45641;-50
2023/09/19 04:44:09;;;;;;;;;2.00;2.00;;;;;23.92;42.63;100940.97;4960840;28;45239;-42
2023/09/19 04:46:35;;;;;;;;;1.00;1.00;;;;;23.89;43.16;100936.72;4960454;28;45743;-44
2023/09/19 04:49:00;;;;;;;;;1.75;1.00;;;;;23.90;43.09;100934.91;4960399;28;45270;-47
2023/09/19 04:51:29;;;;;;;;;0.75;0.50;;;;;23.89;42.87;100944.66;4960526;28;45810;-41
2023/09/19 04:53:54;;;;;;;;;2.00;0.00;;;;;23.88;43.19;100948.25;4960610;28;45491;-42
2023/09/19 04:56:20;;;;;;;;;0.00;0.00;;;;;23.88;43.16;100950.03;4960258;28;45365;-50
2023/09/19 04:58:46;;;;;;;;;2.75;1.00;;;;;23.87;42.89;100948.34;4960270;28;45256;-44
2023/09/19 05:01:12;;;;;;;;;1.00;1.00;;;;;23.89;42.64;100964.97;4960434;28;45321;-46
2023/09/19 05:03:38;;;;;;;;;0.00;0.00;;;;;23.89;42.61;100970.28;4943030;28;45575;-46
2023/09/19 05:06:05;;;;;;;;;0.75;0.25;;;;;23.89;42.65;100968.50;4960018;28;46483;-46
2023/09/19 05:08:30;;;;;;;;;3.00;1.00;;;;;23.88;42.94;100969.44;4959897;28;45566;-47
2023/09/19 05:10:55;;;;;;;;;0.00;0.00;;;;;23.90;42.55;100978.13;4960134;28;45363;-47
2023/09/19 05:13:23;;;;;;;;;0.50;0.00;;;;;23.91;43.01;100969.25;4958938;28;45335;-54
2023/09/19 05:15:48;;;;;;;;;1.00;1.00;;;;;23.90;43.07;100961.38;4959781;28;46269;-53
2023/09/19 05:18:13;;;;;;;;;5.00;1.50;;;;;23.91;42.51;100971.03;4960039;28;45432;-51
2023/09/19 05:20:39;;;;;;;;;1.00;1.00;;;;;23.89;42.99;100962.34;4959369;28;60698;-50
2023/09/19 05:23:07;;;;;;;;;1.25;0.25;;;;;23.88;42.90;100971.22;4960105;28;45274;-40
2023/09/19 05:25:37;;;;;;;;;0.00;0.00;;;;;23.88;42.49;100968.56;4959648;28;47147;-43
2023/09/19 05:28:05;;;;;;;;;2.25;0.25;;;;;23.88;42.50;100979.16;4959772;28;45782;-44
2023/09/19 05:30:31;;;;;;;;;3.00;1.00;;;;;23.87;42.40;100977.47;4960007;28;45832;-39
2023/09/19 05:32:57;;;;;;;;;2.50;1.00;;;;;23.86;42.36;100981.94;4958694;28;45466;-42
2023/09/19 05:35:24;;;;;;;;;1.00;1.00;;;;;23.86;43.07;100981.09;4959600;28;46641;-44
2023/09/19 05:37:54;;;;;;;;;1.50;1.00;;;;;23.86;42.75;100981.09;4959591;28;45628;-44
2023/09/19 05:40:20;;;;;;;;;1.00;0.00;;;;;23.86;42.53;100984.56;4959555;28;45341;-43
2023/09/19 05:42:46;;;;;;;;;1.75;0.00;;;;;23.86;42.53;100992.50;4960219;28;45213;-44
2023/09/19 05:45:12;;;;;;;;;2.00;0.00;;;;;23.86;42.96;100995.16;4959696;28;46080;-43
2023/09/19 05:47:45;;;;;;;;;0.50;0.50;;;;;23.88;42.37;100995.03;4958396;28;45914;-42
2023/09/19 05:50:11;;;;;;;;;3.00;1.00;;;;;23.87;42.58;100996.00;4959913;28;45873;-44
2023/09/19 05:52:37;;;;;;;;;0.00;0.00;;;;;23.87;42.72;101001.28;4958617;28;45691;-44
2023/09/19 05:55:06;;;;;;;;;0.50;0.00;;;;;23.87;42.56;101003.94;4959188;28;46142;-43
2023/09/19 05:57:32;;;;;;;;;1.25;1.25;;;;;23.86;43.08;101003.09;4959505;28;45338;-42
2023/09/19 05:59:57;;;;;;;;;2.25;0.25;;;;;23.86;42.41;101011.03;4959341;28;45482;-46
2023/09/19 06:02:23;;;;;;;;;0.75;0.75;;;;;23.85;42.43;101004.03;4957929;28;45484;-44
2023/09/19 06:04:49;;;;;;;;;0.25;0.25;;;;;23.85;42.47;101005.84;4958254;28;65669;-42
2023/09/19 06:07:15;;;;;;;;;0.00;0.00;;;;;23.84;43.02;101017.41;4958995;28;45800;-39
2023/09/19 06:09:40;;;;;;;;;0.75;0.75;;;;;23.83;42.74;101013.03;4958436;28;45427;-43
2023/09/19 06:12:06;;;;;;;;;0.00;0.00;;;;;23.82;42.73;101019.28;4959223;28;45263;-44
2023/09/19 06:14:31;;;;;;;;;1.50;0.75;;;;;23.82;42.96;101012.19;4959060;28;46228;-41
2023/09/19 06:16:57;;;;;;;;;1.00;1.00;;;;;23.82;42.38;101012.19;4958955;28;45406;-41
2023/09/19 06:19:22;;;;;;;;;1.75;1.75;;;;;23.81;42.58;101014.94;4959157;28;45259;-44
2023/09/19 06:21:48;;;;;;;;;0.50;0.50;;;;;23.81;42.36;101010.50;4959041;28;45363;-38
2023/09/19 06:24:14;;;;;;;;;1.75;0.00;;;;;23.81;42.98;101022.88;4959112;28;46271;-47
2023/09/19 06:26:40;;;;;;;;;2.00;0.00;;;;;23.80;42.48;101013.25;4957583;28;45430;-46
2023/09/19 06:29:07;;;;;;;;;2.00;1.00;;;;;23.81;42.56;101014.94;4958915;28;45417;-42
2023/09/19 06:31:33;;;;;;;;;1.25;0.00;;;;;23.82;42.43;101016.66;4959010;28;45424;-46
2023/09/19 06:33:58;;;;;;;;;0.50;0.50;;;;;23.81;43.00;101015.81;4958700;28;45924;-46
2023/09/19 06:36:24;;;;;;;;;0.00;0.00;;;;;23.82;42.72;101016.66;4958785;28;45286;-45
2023/09/19 06:38:51;;;;;;;;;1.00;1.00;;;;;23.83;42.64;101023.63;4958750;28;45453;-40
2023/09/19 06:41:17;;;;;;;;;2.00;1.50;;;;;23.82;42.45;101021.94;4959159;28;45514;-49
2023/09/19 06:43:42;;;;;;;;;1.50;0.75;;;;;23.83;42.74;101021.00;4958528;28;47069;-47
2023/09/19 06:46:08;;;;;;;;;1.00;0.00;;;;;23.82;42.85;101019.28;4958615;28;45311;-49
2023/09/19 06:48:34;;;;;;;;;1.75;1.00;;;;;23.81;42.86;101030.81;4958577;28;45342;-47
2023/09/19 06:51:04;;;;;;;;;1.00;1.00;;;;;23.79;42.72;101028.28;4958638;28;45528;-47
2023/09/19 06:53:31;;;;;;;;;0.25;0.25;;;;;23.80;42.37;101029.13;4958297;28;46471;-45
2023/09/19 06:55:57;;;;;;;;;2.25;1.00;;;;;23.78;42.51;101019.47;4958383;28;45632;-43
2023/09/19 06:58:22;;;;;;;;;0.25;0.25;;;;;23.78;42.69;101022.13;4958355;28;45240;-43
2023/09/19 07:00:49;;;;;;;;;0.25;0.25;;;;;23.75;42.29;101017.06;4958720;28;45616;-50
2023/09/19 07:03:16;;;;;;;;;4.00;1.00;;;;;23.76;42.51;101023.19;4958292;28;47953;-42
2023/09/19 07:05:42;;;;;;;;;0.00;0.00;;;;;23.75;42.75;101010.91;4958396;28;45396;-47
2023/09/19 07:08:12;;;;;;;;;1.00;0.00;;;;;23.77;42.79;101025.72;4958505;28;45381;-42
2023/09/19 07:10:40;;;;;;;;;0.00;0.00;;;;;23.76;42.30;101029.31;4958668;28;45216;-46
2023/09/19 07:13:10;;;;;;;;;1.00;0.50;;;;;23.76;42.87;101024.03;4957617;28;46643;-48
2023/09/19 07:15:41;;;;;;;;;1.75;1.00;;;;;23.77;42.80;101031.00;4957378;28;45191;-47
2023/09/19 07:18:09;;;;;;;;;1.00;1.00;;;;;23.77;42.79;101036.31;4958278;28;45436;-46
2023/09/19 07:20:34;;;;;;;;;0.75;0.75;;;;;23.77;42.24;101028.38;4958114;28;45167;-45
2023/09/19 07:23:00;;;;;;;;;1.25;1.25;;;;;23.75;42.53;101025.00;4957406;28;58771;-47
2023/09/19 07:25:26;;;;;;;;;2.50;0.00;;;;;23.76;41.92;101020.53;4957917;28;45315;-43
2023/09/19 07:27:52;;;;;;;;;3.00;1.00;;;;;23.73;42.33;101018.09;4958419;28;45366;-46
2023/09/19 07:30:17;;;;;;;;;0.75;0.00;;;;;23.75;42.56;101017.06;4958520;28;45594;-51
2023/09/19 07:32:42;;;;;;;;;1.75;1.00;;;;;23.75;42.29;101019.72;4957897;28;46528;-39
2023/09/19 07:35:08;;;;;;;;;2.75;1.25;;;;;23.74;42.16;101020.66;4957278;28;58762;-43
2023/09/19 07:37:34;;;;;;;;;1.25;0.00;;;;;23.76;42.05;101020.53;4958045;28;45459;-48
2023/09/19 07:40:00;;;;;;;;;1.00;1.00;;;;;23.75;41.95;101022.34;4958000;28;45295;-52
2023/09/19 07:42:26;;;;;;;;;5.25;2.00;;;;;23.77;42.21;101015.13;4957573;28;46512;-48
2023/09/19 07:44:53;;;;;;;;;1.00;0.00;;;;;23.77;42.18;101014.31;4958019;28;45329;-48
2023/09/19 07:47:20;;;;;;;;;0.00;0.00;;;;;23.78;42.34;101008.06;4958095;28;45299;-46
2023/09/19 07:49:47;;;;;;;;;0.00;0.00;;;;;23.78;42.18;101013.34;4957877;28;45389;-45
2023/09/19 07:52:13;;;;;;;;;0.50;0.50;;;;;23.77;42.60;101009.84;4957485;28;46876;-43
2023/09/19 07:54:41;;;;;;;;;0.50;0.25;;;;;23.78;42.49;101013.34;4957577;28;45940;-41
2023/09/19 07:57:06;;;;;;;;;1.00;0.00;;;;;23.78;41.99;101006.25;4957765;28;45362;-44
2023/09/19 07:59:32;;;;;;;;;3.00;0.25;;;;;23.80;41.84;101018.53;4956482;28;45457;-43
2023/09/19 08:01:57;;;;;;;;;0.25;0.00;;;;;23.76;42.44;101013.44;4956988;28;58690;-44
2023/09/19 08:04:25;;;;;;;;;2.25;0.00;;;;;23.77;41.96;101016.94;4956536;28;45482;-43
2023/09/19 08:06:52;;;;;;;;;1.00;1.00;;;;;23.77;41.96;101023.06;4957889;28;45397;-46
2023/09/19 08:09:20;;;;;;;;;0.50;0.25;;;;;23.78;41.76;101016.84;4957748;28;45264;-45
2023/09/19 08:11:47;;;;;;;;;2.00;1.00;;;;;23.78;42.13;101023.94;4938582;28;46210;-51
2023/09/19 08:14:14;;;;;;;;;5.25;1.75;;;;;23.76;41.90;101024.03;4957343;28;45453;-51
2023/09/19 08:16:40;;;;;;;;;1.50;0.25;;;;;23.77;42.31;101025.72;4957541;28;45239;-45
2023/09/19 08:19:05;;;;;;;;;2.00;0.00;;;;;23.78;42.30;101027.44;4957849;28;45545;-48
2023/09/19 08:21:32;;;;;;;;;0.00;0.00;;;;;23.78;42.06;101019.47;4957260;28;45818;-53
2023/09/19 08:23:57;;;;;;;;;0.75;0.75;;;;;23.78;42.32;101024.78;4957013;28;45822;-49
2023/09/19 08:26:24;;;;;;;;;2.00;0.25;;;;;23.80;41.62;101029.13;4957684;28;45469;-44
2023/09/19 08:28:51;;;;;;;;;2.00;1.00;;;;;23.80;42.16;101031.78;4956998;28;45386;-47
2023/09/19 08:31:16;;;;;;;;;0.00;0.00;;;;;23.81;41.63;101030.81;4956498;28;46552;-43
2023/09/19 08:33:44;;;;;;;;;1.00;1.00;;;;;23.82;41.69;101032.53;4956998;28;45335;-44
2023/09/19 08:36:10;;;;;;;;;1.75;0.75;;;;;23.81;41.65;101036.97;4957291;28;45301;-52
2023/09/19 08:38:36;;;;;;;;;4.25;2.25;;;;;23.81;42.11;101033.47;4957277;28;45224;-40
2023/09/19 08:41:07;;;;;;;;;2.00;1.75;;;;;23.82;41.63;101030.72;4940556;28;46352;-46
2023/09/19 08:43:34;;;;;;;;;1.25;1.00;;;;;23.83;41.87;101031.56;4937434;28;45686;-40
2023/09/19 08:46:05;;;;;;;;;1.75;1.00;;;;;23.84;41.79;101031.47;4937646;28;45232;-47
2023/09/19 08:48:31;;;;;;;;;2.50;1.75;;;;;23.87;42.18;101038.34;4937627;28;45442;-49
2023/09/19 08:51:01;;;;;;;;;1.00;1.00;;;;;23.87;41.87;101046.28;4937781;28;46501;-40
2023/09/19 08:53:42;;;;;;;;;3.00;1.00;;;;;23.88;42.27;101045.34;4920691;28;45406;-44
2023/09/19 08:56:10;;;;;;;;;1.00;1.00;;;;;23.89;42.18;101034.66;4937574;28;45323;-43
2023/09/19 08:58:53;;;;;;;;;1.00;0.50;;;;;23.89;42.38;101033.78;4937712;28;45394;-39
2023/09/19 09:01:24;;;;;;;;;2.25;1.75;;;;;23.90;41.72;101033.72;4937389;28;47129;-44
2023/09/19 09:03:52;;;;;;;;;1.75;0.25;;;;;23.91;41.90;101026.59;4937498;28;45508;-40
2023/09/19 09:06:18;;;;;;;;;1.25;1.25;;;;;23.93;41.73;101030.00;4937636;28;45265;-45
2023/09/19 09:08:44;;;;;;;;;1.75;0.50;;;;;23.93;41.70;101028.19;4937746;28;45586;-42
2023/09/19 09:11:11;;;;;;;;;0.00;0.00;;;;;23.94;41.91;101029.06;4937403;28;47283;-48
2023/09/19 09:13:37;;;;;;;;;1.00;0.00;;;;;23.96;41.87;101031.63;4935890;28;45721;-43
2023/09/19 09:16:02;;;;;;;;;1.25;0.00;;;;;23.97;41.87;101034.19;4937519;28;45309;-46
2023/09/19 09:18:29;;;;;;;;;2.50;1.00;;;;;23.99;42.40;101032.25;4937942;28;45229;-45
2023/09/19 09:20:55;;;;;;;;;2.00;0.75;;;;;24.00;42.30;101028.66;4936126;28;48325;-43
2023/09/19 09:23:21;;;;;;;;;0.50;0.50;;;;;24.01;41.86;101024.25;4939906;28;45413;-49
2023/09/19 09:25:48;;;;;;;;;1.00;0.25;;;;;24.03;42.25;101025.00;4939649;28;45447;-44
2023/09/19 09:28:19;;;;;;;;;0.75;0.00;;;;;24.03;41.96;101031.13;4923552;28;45512;-46
2023/09/19 09:30:45;;;;;;;;;0.75;0.00;;;;;24.03;42.25;101025.81;4940656;28;45355;-44
2023/09/19 09:33:12;;;;;;;;;1.25;0.00;;;;;24.04;42.23;101021.34;4940348;28;45339;-43
2023/09/19 09:35:51;;;;;;;;;0.00;0.00;;;;;24.03;42.03;101025.81;4939459;28;45406;-44
2023/09/19 09:38:21;;;;;;;;;0.25;0.25;;;;;24.04;41.60;101022.22;4940754;28;45356;-43
2023/09/19 09:43:46;;;;;;;;;1.00;0.00;;;;;24.05;42.23;101015.97;4935616;28;45249;-44
2023/09/19 09:49:39;;;;;;;;;2.00;0.50;;;;;24.08;42.09;101023.72;4940569;28;45415;-43
2023/09/19 09:51:48;;;;;;;;;0.00;0.00;;;;;24.09;41.96;101030.69;4926422;28;45461;-49
2023/09/19 09:54:16;;;;;;;;;2.25;0.00;;;;;24.11;42.35;101029.75;4936897;28;45496;-41
2023/09/19 09:56:59;;;;;;;;;0.00;0.00;;;;;24.12;42.39;101018.19;4938475;28;45403;-47
2023/09/19 09:59:53;;;;;;;;;0.00;0.00;;;;;24.12;42.00;101023.50;4939955;28;45637;-42
2023/09/19 10:02:29;;;;;;;;;0.50;0.50;;;;;24.12;41.76;101021.72;4939977;28;47132;-47
2023/09/19 10:05:14;;;;;;;;;1.50;0.50;;;;;24.13;41.46;101006.66;4940025;28;45237;-50
2023/09/19 10:07:49;;;;;;;;;1.00;0.25;;;;;24.14;41.39;101011.00;4940281;28;45314;-47
2023/09/19 10:10:21;;;;;;;;;0.00;0.00;;;;;24.13;41.85;101004.00;4939031;28;45453;-48
2023/09/19 10:12:48;;;;;;;;;2.00;0.00;;;;;24.13;41.10;101015.47;4939627;28;46337;-46
2023/09/19 10:15:16;;;;;;;;;0.00;0.00;;;;;24.15;41.80;100999.47;4939905;28;45816;-44
2023/09/19 10:17:44;;;;;;;;;0.00;0.00;;;;;24.16;41.36;100998.50;4940112;28;45324;-41
2023/09/19 10:20:22;;;;;;;;;2.00;1.00;;;;;24.14;41.04;100995.13;4939960;28;45458;-43
2023/09/19 10:22:57;;;;;;;;;1.25;0.00;;;;;24.15;41.38;100994.16;4939872;28;46954;-40
2023/09/19 10:25:25;;;;;;;;;1.00;1.00;;;;;24.15;41.55;100991.53;4939775;28;45746;-46
2023/09/19 10:27:55;;;;;;;;;1.00;1.00;;;;;24.15;41.36;100986.22;4939933;28;45404;-47
2023/09/19 10:30:22;;;;;;;;;0.25;0.25;;;;;24.15;41.01;100981.75;4940034;28;45327;-49
2023/09/19 10:33:03;;;;;;;;;1.00;1.00;;;;;24.16;41.13;100979.97;4939639;28;45452;-47
2023/09/19 10:35:29;;;;;;;;;17.25;15.75;;;;;24.17;41.22;100986.97;4939437;28;45478;-47
2023/09/19 10:37:58;;;;;;;;;23.75;18.50;;;;;24.17;41.24;100986.97;4939616;28;45307;-47
2023/09/19 10:40:30;;;;;;;;;32.50;23.50;;;;;24.17;41.21;100989.63;4939766;28;45375;-52
2023/09/19 10:43:05;;;;;;;;;29.50;22.50;;;;;24.16;40.75;100986.09;4939165;28;46326;-49
2023/09/19 10:45:31;;;;;;;;;56.50;44.75;;;;;24.17;41.28;100981.69;4939406;28;45322;-48
2023/09/19 10:47:57;;;;;;;;;62.25;49.25;;;;;24.16;41.20;100974.69;4922010;28;45335;-49
2023/09/19 10:50:23;;;;;;;;;68.00;52.25;;;;;24.16;41.03;100979.97;4939150;28;45834;-51
2023/09/19 10:52:58;;;;;;;;;70.50;50.75;;;;;24.15;41.38;100975.63;4939099;28;45402;-49
2023/09/19 10:55:27;;;;;;;;;57.75;44.50;;;;;24.15;41.61;100980.94;4922558;28;45338;-49
2023/09/19 10:57:53;;;;;;;;;52.75;41.00;;;;;24.16;41.14;100977.31;4939137;28;45264;-45
2023/09/19 11:00:26;;;;;;;;;35.25;30.25;;;;;24.16;40.89;100979.97;4939037;28;45459;-43
2023/09/19 11:03:12;;;;;;;;;29.50;28.25;;;;;24.16;41.29;100972.03;4938691;28;46233;-42
2023/09/19 11:05:40;;;;;;;;;18.75;15.00;;;;;24.14;41.21;100979.22;4938897;28;45874;-42
2023/09/19 11:08:07;;;;;;;;;15.50;12.75;;;;;24.14;40.73;100984.53;4939178;28;45473;-42
2023/09/19 11:10:50;;;;;;;;;16.50;15.00;;;;;24.12;40.73;100975.84;4939434;28;45521;-47
2023/09/19 11:13:37;;;;;;;;;6.00;6.00;;;;;24.09;40.79;100988.31;4938555;28;45619;-49
2023/09/19 11:16:04;;;;;;;;;5.00;5.00;;;;;24.09;40.45;100984.84;4939132;28;45808;-45
2023/09/19 11:18:42;;;;;;;;;4.25;3.00;;;;;24.06;40.91;100977.97;4938580;28;45333;-45
2023/09/19 11:21:33;;;;;;;;;1.75;1.75;;;;;24.05;40.14;100970.09;4939065;28;45355;-49
2023/09/19 11:24:22;;;;;;;;;5.00;4.00;;;;;24.03;40.20;100959.63;4938642;28;46207;-48
2023/09/19 11:26:48;;;;;;;;;3.00;3.00;;;;;24.01;40.09;100964.19;4938563;28;45742;-43
2023/09/19 11:29:31;;;;;;;;;4.00;2.25;;;;;24.00;40.53;100959.00;4937426;28;45359;-43
2023/09/19 11:31:59;;;;;;;;;3.50;3.00;;;;;23.99;40.25;100960.78;4938984;28;45393;-40
2023/09/19 11:34:36;;;;;;;;;2.50;1.75;;;;;24.03;40.69;100964.09;4938421;28;46602;-41
2023/09/19 11:37:14;;;;;;;;;1.75;1.75;;;;;24.03;40.95;100959.63;4938798;28;45451;-48